EWG4ZA EDDS-EGLL
Flight info
| Callsign | EWG4ZA |
|---|---|
| Flight time | 1h 16m |
| Altitude | 24000 |
| Route | VESID4B VESID Y127 TUDGA/N0447F380 Y127 BANIM L608 LIRSU DCT DENUT L608 LOGAN |
| Aircraft | A319/M-SDE3FGHIJ1RWY/LB1 |
Departure
| Time | 2026-05-06 11:57 |
|---|---|
| Airport | Stuttgart Airport (EDDS) |
Arrival
| Time | 2026-05-06 13:14 |
|---|---|
| Airport | London Heathrow Airport (EGLL) |
| Time | Latitude | Longitude | Altitude | Speed | Heading |
|---|---|---|---|---|---|
| 2026-05-06 11:20 | 48.68861 | 9.19211 | 1316 ft | 0 kts | 344° |
| 2026-05-06 11:45 | 48.68859 | 9.19211 | 1316 ft | 2 kts | 344° |
| 2026-05-06 11:45 | 48.68835 | 9.19222 | 1316 ft | 4 kts | 344° |
| 2026-05-06 11:45 | 48.68811 | 9.19232 | 1315 ft | 2 kts | 343° |
| 2026-05-06 11:46 | 48.68789 | 9.19235 | 1315 ft | 4 kts | 34° |
| 2026-05-06 11:46 | 48.68774 | 9.19205 | 1317 ft | 4 kts | 69° |
| 2026-05-06 11:46 | 48.68768 | 9.19177 | 1317 ft | 0 kts | 74° |
| 2026-05-06 11:49 | 48.68769 | 9.19183 | 1317 ft | 0 kts | 74° |
| 2026-05-06 11:49 | 48.68774 | 9.19211 | 1317 ft | 5 kts | 74° |
| 2026-05-06 11:49 | 48.68791 | 9.19301 | 1314 ft | 12 kts | 74° |
| 2026-05-06 11:49 | 48.68817 | 9.19440 | 1312 ft | 16 kts | 74° |
| 2026-05-06 11:50 | 48.68838 | 9.19553 | 1310 ft | 18 kts | 74° |
| 2026-05-06 11:50 | 48.68885 | 9.19800 | 1305 ft | 15 kts | 74° |
| 2026-05-06 11:50 | 48.68829 | 9.19904 | 1298 ft | 16 kts | 151° |
| 2026-05-06 11:50 | 48.68837 | 9.20026 | 1295 ft | 14 kts | 62° |
| 2026-05-06 11:51 | 48.68868 | 9.20188 | 1291 ft | 18 kts | 73° |
| 2026-05-06 11:51 | 48.68908 | 9.20395 | 1290 ft | 23 kts | 73° |
| 2026-05-06 11:51 | 48.68956 | 9.20651 | 1279 ft | 28 kts | 73° |
| 2026-05-06 11:51 | 48.69000 | 9.20886 | 1274 ft | 25 kts | 74° |
| 2026-05-06 11:52 | 48.69049 | 9.21145 | 1271 ft | 22 kts | 73° |
| 2026-05-06 11:52 | 48.69079 | 9.21303 | 1267 ft | 25 kts | 74° |
| 2026-05-06 11:52 | 48.69143 | 9.21640 | 1258 ft | 16 kts | 73° |
| 2026-05-06 11:52 | 48.69178 | 9.21824 | 1259 ft | 20 kts | 73° |
| 2026-05-06 11:53 | 48.69218 | 9.22036 | 1251 ft | 19 kts | 74° |
| 2026-05-06 11:53 | 48.69258 | 9.22249 | 1244 ft | 23 kts | 74° |
| 2026-05-06 11:53 | 48.69308 | 9.22507 | 1246 ft | 28 kts | 73° |
| 2026-05-06 11:53 | 48.69351 | 9.22731 | 1231 ft | 20 kts | 74° |
| 2026-05-06 11:54 | 48.69393 | 9.22953 | 1227 ft | 24 kts | 73° |
| 2026-05-06 11:54 | 48.69443 | 9.23217 | 1221 ft | 28 kts | 74° |
| 2026-05-06 11:54 | 48.69494 | 9.23490 | 1216 ft | 24 kts | 74° |
| 2026-05-06 11:54 | 48.69535 | 9.23703 | 1211 ft | 20 kts | 73° |
| 2026-05-06 11:55 | 48.69577 | 9.23925 | 1207 ft | 16 kts | 74° |
| 2026-05-06 11:55 | 48.69609 | 9.24112 | 1202 ft | 21 kts | 83° |
| 2026-05-06 11:55 | 48.69551 | 9.24289 | 1193 ft | 19 kts | 142° |
| 2026-05-06 11:55 | 48.69463 | 9.24329 | 1190 ft | 14 kts | 165° |
| 2026-05-06 11:56 | 48.69405 | 9.24350 | 1218 ft | 4 kts | 177° |
| 2026-05-06 11:56 | 48.69390 | 9.24312 | 1191 ft | 5 kts | 254° |
| 2026-05-06 11:56 | 48.69362 | 9.24168 | 1194 ft | 40 kts | 254° |
| 2026-05-06 11:56 | 48.69223 | 9.23446 | 1208 ft | 102 kts | 254° |
| 2026-05-06 11:57 | 48.68980 | 9.22150 | 1240 ft | 152 kts | 254° |
| 2026-05-06 11:57 | 48.68719 | 9.20639 | 1841 ft | 140 kts | 257° |
| 2026-05-06 11:57 | 48.68478 | 9.19215 | 2372 ft | 142 kts | 254° |
| 2026-05-06 11:57 | 48.68176 | 9.17689 | 2662 ft | 162 kts | 253° |
| 2026-05-06 11:58 | 48.67824 | 9.15938 | 2971 ft | 185 kts | 252° |
| 2026-05-06 11:58 | 48.67425 | 9.13958 | 3324 ft | 211 kts | 252° |
| 2026-05-06 11:58 | 48.67017 | 9.11707 | 3939 ft | 231 kts | 262° |
| 2026-05-06 11:58 | 48.67335 | 9.09312 | 4763 ft | 243 kts | 299° |
| 2026-05-06 11:59 | 48.68377 | 9.07275 | 5698 ft | 249 kts | 315° |
| 2026-05-06 11:59 | 48.69896 | 9.06001 | 6483 ft | 266 kts | 343° |
| 2026-05-06 11:59 | 48.71123 | 9.05481 | 6983 ft | 276 kts | 344° |
| 2026-05-06 11:59 | 48.72992 | 9.04642 | 7880 ft | 284 kts | 342° |
| 2026-05-06 12:00 | 48.75508 | 9.03429 | 9137 ft | 289 kts | 341° |
| 2026-05-06 12:00 | 48.77428 | 9.02463 | 10025 ft | 293 kts | 340° |
| 2026-05-06 12:00 | 48.78720 | 9.01801 | 10500 ft | 301 kts | 340° |
| 2026-05-06 12:00 | 48.80766 | 9.00692 | 10830 ft | 324 kts | 338° |
| 2026-05-06 12:01 | 48.83660 | 8.98987 | 11570 ft | 341 kts | 336° |
| 2026-05-06 12:01 | 48.85886 | 8.97641 | 12319 ft | 347 kts | 336° |
| 2026-05-06 12:01 | 48.88146 | 8.96275 | 13057 ft | 353 kts | 336° |
| 2026-05-06 12:01 | 48.90453 | 8.94890 | 13770 ft | 359 kts | 336° |
| 2026-05-06 12:02 | 48.92792 | 8.93493 | 14438 ft | 364 kts | 336° |
| 2026-05-06 12:02 | 48.95161 | 8.92087 | 15126 ft | 367 kts | 336° |
| 2026-05-06 12:02 | 48.97552 | 8.90673 | 15850 ft | 370 kts | 337° |
| 2026-05-06 12:02 | 48.99144 | 8.89729 | 16326 ft | 372 kts | 337° |
| 2026-05-06 12:03 | 49.01565 | 8.88288 | 17024 ft | 375 kts | 336° |
| 2026-05-06 12:03 | 49.04010 | 8.86830 | 17701 ft | 379 kts | 336° |
| 2026-05-06 12:03 | 49.06479 | 8.85355 | 18335 ft | 384 kts | 336° |
| 2026-05-06 12:03 | 49.08979 | 8.83858 | 18936 ft | 387 kts | 337° |
| 2026-05-06 12:04 | 49.11488 | 8.82350 | 19547 ft | 390 kts | 337° |
| 2026-05-06 12:04 | 49.14035 | 8.80855 | 20164 ft | 393 kts | 341° |
| 2026-05-06 12:04 | 49.16708 | 8.79892 | 20749 ft | 398 kts | 352° |
| 2026-05-06 12:04 | 49.19491 | 8.79680 | 21329 ft | 402 kts | 2° |
| 2026-05-06 12:05 | 49.22279 | 8.80059 | 21988 ft | 403 kts | 5° |
| 2026-05-06 12:05 | 49.25080 | 8.80465 | 22599 ft | 406 kts | 5° |
| 2026-05-06 12:05 | 49.27903 | 8.80860 | 23196 ft | 409 kts | 5° |
| 2026-05-06 12:05 | 49.30749 | 8.81241 | 23701 ft | 412 kts | 4° |
| 2026-05-06 12:06 | 49.33611 | 8.81617 | 24162 ft | 415 kts | 4° |
| 2026-05-06 12:06 | 49.36507 | 8.81998 | 24621 ft | 418 kts | 4° |
| 2026-05-06 12:06 | 49.39416 | 8.82389 | 25071 ft | 422 kts | 4° |
| 2026-05-06 12:06 | 49.42344 | 8.82789 | 25531 ft | 424 kts | 4° |
| 2026-05-06 12:07 | 49.45265 | 8.83190 | 25985 ft | 427 kts | 4° |
| 2026-05-06 12:07 | 49.48273 | 8.83604 | 26422 ft | 431 kts | 4° |
| 2026-05-06 12:07 | 49.51278 | 8.83952 | 26845 ft | 434 kts | 359° |
| 2026-05-06 12:07 | 49.54249 | 8.83619 | 27257 ft | 435 kts | 348° |
| 2026-05-06 12:08 | 49.57172 | 8.82442 | 27665 ft | 436 kts | 337° |
| 2026-05-06 12:08 | 49.59918 | 8.80468 | 28073 ft | 436 kts | 327° |
| 2026-05-06 12:08 | 49.62397 | 8.77785 | 28490 ft | 436 kts | 316° |
| 2026-05-06 12:08 | 49.64526 | 8.74470 | 28904 ft | 434 kts | 306° |
| 2026-05-06 12:09 | 49.66459 | 8.70882 | 29334 ft | 437 kts | 305° |
| 2026-05-06 12:09 | 49.68410 | 8.67255 | 29751 ft | 440 kts | 305° |
| 2026-05-06 12:09 | 49.70375 | 8.63602 | 30094 ft | 443 kts | 305° |
| 2026-05-06 12:09 | 49.72435 | 8.60020 | 30424 ft | 450 kts | 311° |
| 2026-05-06 12:10 | 49.74722 | 8.56693 | 30737 ft | 453 kts | 313° |
| 2026-05-06 12:10 | 49.77033 | 8.53346 | 31053 ft | 456 kts | 313° |
| 2026-05-06 12:10 | 49.79351 | 8.49981 | 31361 ft | 458 kts | 312° |
| 2026-05-06 12:10 | 49.81664 | 8.46580 | 31693 ft | 458 kts | 310° |
| 2026-05-06 12:11 | 49.83705 | 8.42832 | 32128 ft | 452 kts | 301° |
| 2026-05-06 12:11 | 49.85325 | 8.38702 | 32553 ft | 446 kts | 292° |
| 2026-05-06 12:11 | 49.86512 | 8.34299 | 32991 ft | 441 kts | 283° |
| 2026-05-06 12:11 | 49.87457 | 8.29789 | 33421 ft | 440 kts | 283° |
| 2026-05-06 12:12 | 49.88402 | 8.25279 | 33847 ft | 439 kts | 283° |
| 2026-05-06 12:12 | 49.89343 | 8.20780 | 34225 ft | 439 kts | 283° |
| 2026-05-06 12:12 | 49.90286 | 8.16277 | 34625 ft | 439 kts | 283° |
| 2026-05-06 12:12 | 49.91228 | 8.11773 | 34987 ft | 438 kts | 284° |
| 2026-05-06 12:13 | 49.92165 | 8.07280 | 35391 ft | 437 kts | 284° |
| 2026-05-06 12:13 | 49.93096 | 8.02799 | 35763 ft | 437 kts | 284° |
| 2026-05-06 12:13 | 49.94024 | 7.98321 | 36086 ft | 436 kts | 283° |
| 2026-05-06 12:13 | 49.94706 | 7.93752 | 36392 ft | 432 kts | 274° |
| 2026-05-06 12:14 | 49.95078 | 7.89130 | 36727 ft | 431 kts | 274° |
| 2026-05-06 12:14 | 49.95443 | 7.84509 | 37027 ft | 431 kts | 274° |
| 2026-05-06 12:14 | 49.95810 | 7.79884 | 37312 ft | 431 kts | 274° |
| 2026-05-06 12:14 | 49.96177 | 7.75267 | 37604 ft | 432 kts | 274° |
| 2026-05-06 12:15 | 49.96546 | 7.70632 | 37757 ft | 433 kts | 274° |
| 2026-05-06 12:15 | 49.96909 | 7.66041 | 37778 ft | 433 kts | 274° |
| 2026-05-06 12:15 | 49.97637 | 7.56743 | 37777 ft | 433 kts | 274° |
| 2026-05-06 12:16 | 49.98360 | 7.47451 | 37783 ft | 433 kts | 274° |
| 2026-05-06 12:16 | 49.99077 | 7.38158 | 37782 ft | 433 kts | 274° |
| 2026-05-06 12:17 | 49.99770 | 7.28861 | 37802 ft | 433 kts | 274° |
| 2026-05-06 12:17 | 50.00462 | 7.19564 | 37784 ft | 434 kts | 274° |
| 2026-05-06 12:18 | 50.01158 | 7.10245 | 37772 ft | 434 kts | 274° |
| 2026-05-06 12:18 | 50.01831 | 7.00920 | 37793 ft | 434 kts | 274° |
| 2026-05-06 12:19 | 50.02771 | 6.91638 | 37776 ft | 438 kts | 284° |
| 2026-05-06 12:19 | 50.05348 | 6.83003 | 37796 ft | 443 kts | 296° |
| 2026-05-06 12:20 | 50.08333 | 6.74671 | 37773 ft | 444 kts | 296° |
| 2026-05-06 12:20 | 50.11314 | 6.66243 | 37772 ft | 445 kts | 296° |
| 2026-05-06 12:21 | 50.14286 | 6.57799 | 37780 ft | 445 kts | 296° |
| 2026-05-06 12:21 | 50.17262 | 6.49338 | 37764 ft | 445 kts | 296° |
| 2026-05-06 12:22 | 50.20288 | 6.40898 | 37810 ft | 446 kts | 298° |
| 2026-05-06 12:22 | 50.23572 | 6.32654 | 37804 ft | 448 kts | 300° |
| 2026-05-06 12:23 | 50.26914 | 6.24450 | 37817 ft | 448 kts | 299° |
| 2026-05-06 12:23 | 50.30199 | 6.16161 | 37821 ft | 448 kts | 298° |
| 2026-05-06 12:24 | 50.33437 | 6.07842 | 37843 ft | 448 kts | 298° |
| 2026-05-06 12:24 | 50.36670 | 5.99496 | 37857 ft | 448 kts | 298° |
| 2026-05-06 12:25 | 50.39908 | 5.91154 | 37867 ft | 448 kts | 298° |
| 2026-05-06 12:25 | 50.43140 | 5.82822 | 37865 ft | 448 kts | 298° |
| 2026-05-06 12:26 | 50.46368 | 5.74463 | 37887 ft | 448 kts | 298° |
| 2026-05-06 12:26 | 50.49565 | 5.66154 | 37874 ft | 447 kts | 298° |
| 2026-05-06 12:27 | 50.52769 | 5.57798 | 37876 ft | 446 kts | 298° |
| 2026-05-06 12:27 | 50.55962 | 5.49435 | 37886 ft | 446 kts | 298° |
| 2026-05-06 12:28 | 50.59148 | 5.41069 | 37887 ft | 446 kts | 298° |
| 2026-05-06 12:28 | 50.62331 | 5.32684 | 37883 ft | 446 kts | 298° |
| 2026-05-06 12:29 | 50.65512 | 5.24303 | 37865 ft | 445 kts | 298° |
| 2026-05-06 12:29 | 50.68677 | 5.15923 | 37874 ft | 445 kts | 298° |
| 2026-05-06 12:30 | 50.71835 | 5.07524 | 37891 ft | 445 kts | 298° |
| 2026-05-06 12:30 | 50.74984 | 4.99114 | 37891 ft | 445 kts | 298° |
| 2026-05-06 12:31 | 50.78127 | 4.90677 | 37899 ft | 446 kts | 298° |
| 2026-05-06 12:31 | 50.81274 | 4.82236 | 37901 ft | 445 kts | 298° |
| 2026-05-06 12:32 | 50.84413 | 4.73793 | 37897 ft | 445 kts | 297° |
| 2026-05-06 12:32 | 50.87546 | 4.65322 | 37912 ft | 445 kts | 298° |
| 2026-05-06 12:33 | 50.90670 | 4.56867 | 37906 ft | 445 kts | 298° |
| 2026-05-06 12:33 | 50.93788 | 4.48399 | 37904 ft | 445 kts | 297° |
| 2026-05-06 12:34 | 50.96887 | 4.39925 | 37901 ft | 444 kts | 297° |
| 2026-05-06 12:34 | 50.99963 | 4.31492 | 37898 ft | 444 kts | 297° |
| 2026-05-06 12:35 | 51.03052 | 4.23005 | 37897 ft | 444 kts | 297° |
| 2026-05-06 12:35 | 51.06134 | 4.14502 | 37898 ft | 444 kts | 297° |
| 2026-05-06 12:36 | 51.09218 | 4.05989 | 37900 ft | 444 kts | 297° |
| 2026-05-06 12:36 | 51.12290 | 3.97463 | 37905 ft | 444 kts | 297° |
| 2026-05-06 12:37 | 51.15358 | 3.88911 | 37907 ft | 445 kts | 297° |
| 2026-05-06 12:37 | 51.18422 | 3.80352 | 37909 ft | 444 kts | 297° |
| 2026-05-06 12:38 | 51.21477 | 3.71798 | 37920 ft | 444 kts | 297° |
| 2026-05-06 12:38 | 51.24526 | 3.63236 | 37918 ft | 444 kts | 298° |
| 2026-05-06 12:39 | 51.27656 | 3.54743 | 37924 ft | 444 kts | 298° |
| 2026-05-06 12:39 | 51.30825 | 3.46291 | 37933 ft | 443 kts | 298° |
| 2026-05-06 12:40 | 51.33974 | 3.37824 | 37940 ft | 442 kts | 298° |
| 2026-05-06 12:40 | 51.36400 | 3.28855 | 37944 ft | 439 kts | 289° |
| 2026-05-06 12:41 | 51.38560 | 3.19705 | 37945 ft | 439 kts | 289° |
| 2026-05-06 12:41 | 51.40357 | 3.12106 | 37949 ft | 439 kts | 288° |
| 2026-05-06 12:42 | 51.42865 | 3.01474 | 37955 ft | 439 kts | 289° |
| 2026-05-06 12:42 | 51.45023 | 2.92268 | 37953 ft | 439 kts | 289° |
| 2026-05-06 12:43 | 51.47162 | 2.83095 | 37961 ft | 439 kts | 289° |
| 2026-05-06 12:43 | 51.49291 | 2.73923 | 37926 ft | 439 kts | 288° |
| 2026-05-06 12:44 | 51.50343 | 2.69370 | 37317 ft | 443 kts | 289° |
| 2026-05-06 12:44 | 51.51415 | 2.64723 | 36735 ft | 444 kts | 288° |
| 2026-05-06 12:44 | 51.52491 | 2.60064 | 35976 ft | 447 kts | 289° |
| 2026-05-06 12:44 | 51.53573 | 2.55366 | 35232 ft | 450 kts | 288° |
| 2026-05-06 12:45 | 51.54656 | 2.50647 | 34547 ft | 450 kts | 288° |
| 2026-05-06 12:45 | 51.55733 | 2.45956 | 34102 ft | 445 kts | 289° |
| 2026-05-06 12:45 | 51.57853 | 2.36698 | 33046 ft | 436 kts | 289° |
| 2026-05-06 12:46 | 51.58889 | 2.32150 | 32545 ft | 431 kts | 288° |
| 2026-05-06 12:46 | 51.59913 | 2.27638 | 32037 ft | 426 kts | 288° |
| 2026-05-06 12:46 | 51.60921 | 2.23189 | 31538 ft | 422 kts | 288° |
| 2026-05-06 12:46 | 51.61924 | 2.18770 | 31043 ft | 418 kts | 288° |
| 2026-05-06 12:47 | 51.62915 | 2.14403 | 30560 ft | 413 kts | 288° |
| 2026-05-06 12:47 | 51.63896 | 2.10070 | 30072 ft | 410 kts | 289° |
| 2026-05-06 12:47 | 51.64863 | 2.05781 | 29557 ft | 405 kts | 288° |
| 2026-05-06 12:47 | 51.65813 | 2.01542 | 29103 ft | 399 kts | 288° |
| 2026-05-06 12:48 | 51.66748 | 1.97366 | 28656 ft | 394 kts | 288° |
| 2026-05-06 12:48 | 51.67661 | 1.93284 | 28224 ft | 390 kts | 288° |
| 2026-05-06 12:48 | 51.68574 | 1.89200 | 27786 ft | 385 kts | 288° |
| 2026-05-06 12:48 | 51.69474 | 1.85153 | 27379 ft | 381 kts | 288° |
| 2026-05-06 12:49 | 51.70359 | 1.81164 | 26971 ft | 377 kts | 288° |
| 2026-05-06 12:49 | 51.71240 | 1.77194 | 26574 ft | 374 kts | 288° |
| 2026-05-06 12:49 | 51.72109 | 1.73265 | 26180 ft | 371 kts | 288° |
| 2026-05-06 12:49 | 51.72968 | 1.69369 | 25795 ft | 367 kts | 288° |
| 2026-05-06 12:50 | 51.73816 | 1.65498 | 25388 ft | 364 kts | 287° |
| 2026-05-06 12:50 | 51.74396 | 1.61567 | 25009 ft | 358 kts | 276° |
| 2026-05-06 12:50 | 51.74522 | 1.57562 | 24488 ft | 358 kts | 266° |
| 2026-05-06 12:50 | 51.74289 | 1.53548 | 23944 ft | 360 kts | 263° |
| 2026-05-06 12:51 | 51.74025 | 1.49525 | 23372 ft | 361 kts | 263° |
| 2026-05-06 12:51 | 51.73762 | 1.45497 | 22786 ft | 361 kts | 263° |
| 2026-05-06 12:51 | 51.73499 | 1.41482 | 22257 ft | 359 kts | 263° |
| 2026-05-06 12:51 | 51.73238 | 1.37485 | 21718 ft | 357 kts | 263° |
| 2026-05-06 12:52 | 51.73065 | 1.34855 | 21364 ft | 356 kts | 263° |
| 2026-05-06 12:52 | 51.72804 | 1.30895 | 20827 ft | 354 kts | 263° |
| 2026-05-06 12:52 | 51.72543 | 1.26956 | 20302 ft | 352 kts | 263° |
| 2026-05-06 12:52 | 51.72284 | 1.23051 | 19779 ft | 350 kts | 263° |
| 2026-05-06 12:53 | 51.72026 | 1.19159 | 19257 ft | 348 kts | 264° |
| 2026-05-06 12:53 | 51.71770 | 1.15290 | 18735 ft | 346 kts | 264° |
| 2026-05-06 12:53 | 51.71512 | 1.11438 | 18214 ft | 345 kts | 264° |
| 2026-05-06 12:53 | 51.71253 | 1.07595 | 17649 ft | 343 kts | 264° |
| 2026-05-06 12:54 | 51.70994 | 1.03798 | 17136 ft | 339 kts | 264° |
| 2026-05-06 12:54 | 51.70733 | 1.00035 | 16632 ft | 336 kts | 264° |
| 2026-05-06 12:54 | 51.70474 | 0.96313 | 16131 ft | 333 kts | 264° |
| 2026-05-06 12:54 | 51.70219 | 0.92623 | 15668 ft | 329 kts | 264° |
| 2026-05-06 12:55 | 51.69967 | 0.88977 | 15223 ft | 325 kts | 264° |
| 2026-05-06 12:55 | 51.69716 | 0.85372 | 14804 ft | 321 kts | 264° |
| 2026-05-06 12:55 | 51.69465 | 0.81815 | 14384 ft | 318 kts | 265° |
| 2026-05-06 12:55 | 51.69215 | 0.78293 | 13956 ft | 315 kts | 264° |
| 2026-05-06 12:56 | 51.68968 | 0.74805 | 13509 ft | 312 kts | 265° |
| 2026-05-06 12:56 | 51.68724 | 0.71350 | 13081 ft | 309 kts | 264° |
| 2026-05-06 12:56 | 51.68481 | 0.67925 | 12668 ft | 310 kts | 265° |
| 2026-05-06 12:56 | 51.68224 | 0.64253 | 12244 ft | 346 kts | 264° |
| 2026-05-06 12:57 | 51.67950 | 0.60350 | 11826 ft | 353 kts | 265° |
| 2026-05-06 12:57 | 51.67670 | 0.56423 | 11403 ft | 354 kts | 264° |
| 2026-05-06 12:57 | 51.67384 | 0.52484 | 10976 ft | 353 kts | 265° |
| 2026-05-06 12:57 | 51.67094 | 0.48557 | 10555 ft | 354 kts | 265° |
| 2026-05-06 12:58 | 51.66804 | 0.44641 | 10134 ft | 350 kts | 264° |
| 2026-05-06 12:58 | 51.66516 | 0.40754 | 9709 ft | 348 kts | 265° |
| 2026-05-06 12:58 | 51.66232 | 0.36893 | 9257 ft | 347 kts | 264° |
| 2026-05-06 12:58 | 51.65951 | 0.33087 | 8816 ft | 345 kts | 265° |
| 2026-05-06 12:59 | 51.65662 | 0.29204 | 8398 ft | 344 kts | 264° |
| 2026-05-06 12:59 | 51.65378 | 0.25430 | 8145 ft | 344 kts | 265° |
| 2026-05-06 12:59 | 51.65093 | 0.21608 | 7982 ft | 343 kts | 265° |
| 2026-05-06 12:59 | 51.64806 | 0.17795 | 7997 ft | 343 kts | 265° |
| 2026-05-06 13:00 | 51.64518 | 0.13975 | 7997 ft | 344 kts | 266° |
| 2026-05-06 13:00 | 51.64263 | 0.10151 | 8000 ft | 344 kts | 266° |
| 2026-05-06 13:00 | 51.64039 | 0.06318 | 8002 ft | 344 kts | 266° |
| 2026-05-06 13:00 | 51.63806 | 0.02491 | 8000 ft | 340 kts | 266° |
| 2026-05-06 13:01 | 51.63576 | -0.01186 | 8031 ft | 319 kts | 267° |
| 2026-05-06 13:01 | 51.63337 | -0.04627 | 8036 ft | 302 kts | 265° |
| 2026-05-06 13:01 | 51.63107 | -0.07950 | 8039 ft | 298 kts | 266° |
| 2026-05-06 13:01 | 51.62874 | -0.11264 | 7799 ft | 297 kts | 266° |
| 2026-05-06 13:02 | 51.62656 | -0.14560 | 7549 ft | 296 kts | 267° |
| 2026-05-06 13:02 | 51.62425 | -0.17852 | 7305 ft | 295 kts | 266° |
| 2026-05-06 13:02 | 51.62192 | -0.21126 | 7103 ft | 295 kts | 266° |
| 2026-05-06 13:02 | 51.61947 | -0.24392 | 7049 ft | 294 kts | 266° |
| 2026-05-06 13:03 | 51.61704 | -0.27657 | 7052 ft | 293 kts | 266° |
| 2026-05-06 13:03 | 51.61467 | -0.30827 | 7000 ft | 278 kts | 266° |
| 2026-05-06 13:03 | 51.61236 | -0.33883 | 7001 ft | 274 kts | 266° |
| 2026-05-06 13:03 | 51.61014 | -0.36922 | 7000 ft | 273 kts | 266° |
| 2026-05-06 13:04 | 51.60791 | -0.39963 | 7002 ft | 273 kts | 266° |
| 2026-05-06 13:04 | 51.60567 | -0.42955 | 7002 ft | 273 kts | 266° |
| 2026-05-06 13:04 | 51.60333 | -0.45981 | 7002 ft | 273 kts | 266° |
| 2026-05-06 13:04 | 51.60090 | -0.49042 | 7001 ft | 272 kts | 266° |
| 2026-05-06 13:05 | 51.59857 | -0.52078 | 6825 ft | 273 kts | 266° |
| 2026-05-06 13:05 | 51.59628 | -0.55052 | 6534 ft | 271 kts | 265° |
| 2026-05-06 13:05 | 51.59400 | -0.58049 | 6213 ft | 270 kts | 266° |
| 2026-05-06 13:05 | 51.59177 | -0.61026 | 5960 ft | 266 kts | 266° |
| 2026-05-06 13:06 | 51.58950 | -0.63941 | 5831 ft | 260 kts | 265° |
| 2026-05-06 13:06 | 51.58736 | -0.66790 | 5692 ft | 253 kts | 266° |
| 2026-05-06 13:06 | 51.58510 | -0.69563 | 5556 ft | 246 kts | 266° |
| 2026-05-06 13:06 | 51.58279 | -0.72245 | 5406 ft | 239 kts | 266° |
| 2026-05-06 13:07 | 51.58059 | -0.74865 | 5170 ft | 235 kts | 265° |
| 2026-05-06 13:07 | 51.57804 | -0.77454 | 4874 ft | 236 kts | 259° |
| 2026-05-06 13:07 | 51.57071 | -0.79788 | 4698 ft | 234 kts | 229° |
| 2026-05-06 13:07 | 51.55724 | -0.81104 | 4560 ft | 226 kts | 194° |
| 2026-05-06 13:08 | 51.54197 | -0.81386 | 4423 ft | 216 kts | 182° |
| 2026-05-06 13:08 | 51.52722 | -0.81471 | 4282 ft | 208 kts | 181° |
| 2026-05-06 13:08 | 51.51281 | -0.81524 | 4046 ft | 205 kts | 181° |
| 2026-05-06 13:08 | 51.49870 | -0.81469 | 3773 ft | 203 kts | 166° |
| 2026-05-06 13:09 | 51.48669 | -0.80397 | 3447 ft | 198 kts | 131° |
| 2026-05-06 13:09 | 51.47903 | -0.78618 | 3158 ft | 192 kts | 107° |
| 2026-05-06 13:09 | 51.47608 | -0.76589 | 3011 ft | 184 kts | 88° |
| 2026-05-06 13:09 | 51.47614 | -0.74536 | 3008 ft | 185 kts | 84° |
| 2026-05-06 13:10 | 51.47627 | -0.72460 | 2985 ft | 187 kts | 85° |
| 2026-05-06 13:10 | 51.47639 | -0.70383 | 2855 ft | 185 kts | 85° |
| 2026-05-06 13:10 | 51.47650 | -0.68337 | 2582 ft | 180 kts | 84° |
| 2026-05-06 13:10 | 51.47660 | -0.66386 | 2342 ft | 171 kts | 85° |
| 2026-05-06 13:11 | 51.47671 | -0.64526 | 2115 ft | 165 kts | 84° |
| 2026-05-06 13:11 | 51.47681 | -0.62680 | 1893 ft | 165 kts | 85° |
| 2026-05-06 13:11 | 51.47691 | -0.60847 | 1670 ft | 163 kts | 85° |
| 2026-05-06 13:11 | 51.47700 | -0.59034 | 1448 ft | 162 kts | 83° |
| 2026-05-06 13:12 | 51.47709 | -0.57234 | 1221 ft | 161 kts | 85° |
| 2026-05-06 13:12 | 51.47718 | -0.55439 | 993 ft | 160 kts | 84° |
| 2026-05-06 13:12 | 51.47724 | -0.53729 | 773 ft | 146 kts | 84° |
| 2026-05-06 13:12 | 51.47730 | -0.52159 | 585 ft | 136 kts | 83° |
| 2026-05-06 13:13 | 51.47739 | -0.50654 | 388 ft | 136 kts | 84° |
| 2026-05-06 13:13 | 51.47747 | -0.49148 | 223 ft | 135 kts | 86° |
| 2026-05-06 13:13 | 51.47752 | -0.47656 | 92 ft | 125 kts | 84° |
| 2026-05-06 13:13 | 51.47760 | -0.46408 | 88 ft | 93 kts | 90° |
| 2026-05-06 13:14 | 51.47762 | -0.45704 | 84 ft | 39 kts | 89° |
| 2026-05-06 13:14 | 51.47706 | -0.45470 | 87 ft | 12 kts | 168° |
| 2026-05-06 13:14 | 51.47631 | -0.45464 | 86 ft | 6 kts | 180° |
| 2026-05-06 13:14 | 51.47600 | -0.45443 | 87 ft | 5 kts | 123° |
| 2026-05-06 13:15 | 51.47597 | -0.45363 | 86 ft | 10 kts | 90° |
| 2026-05-06 13:15 | 51.47598 | -0.45236 | 86 ft | 13 kts | 89° |
| 2026-05-06 13:15 | 51.47597 | -0.45067 | 86 ft | 17 kts | 90° |
| 2026-05-06 13:15 | 51.47599 | -0.44856 | 87 ft | 21 kts | 89° |
| 2026-05-06 13:16 | 51.47602 | -0.44741 | 87 ft | 10 kts | 88° |
| 2026-05-06 13:16 | 51.47580 | -0.44660 | 86 ft | 9 kts | 156° |
| 2026-05-06 13:16 | 51.47516 | -0.44635 | 90 ft | 10 kts | 133° |
| 2026-05-06 13:16 | 51.47462 | -0.44560 | 88 ft | 11 kts | 165° |
| 2026-05-06 13:17 | 51.47380 | -0.44558 | 86 ft | 13 kts | 178° |
| 2026-05-06 13:17 | 51.47295 | -0.44558 | 86 ft | 12 kts | 180° |
| 2026-05-06 13:17 | 51.47205 | -0.44558 | 86 ft | 14 kts | 179° |
| 2026-05-06 13:17 | 51.47137 | -0.44557 | 86 ft | 10 kts | 179° |
| 2026-05-06 13:18 | 51.47061 | -0.44556 | 86 ft | 9 kts | 180° |
| 2026-05-06 13:18 | 51.46991 | -0.44556 | 86 ft | 9 kts | 179° |
| 2026-05-06 13:18 | 51.46918 | -0.44554 | 86 ft | 12 kts | 179° |
| 2026-05-06 13:18 | 51.46853 | -0.44555 | 86 ft | 8 kts | 180° |
| 2026-05-06 13:19 | 51.46823 | -0.44597 | 88 ft | 4 kts | 262° |
| 2026-05-06 13:19 | 51.46820 | -0.44655 | 87 ft | 3 kts | 267° |
| 2026-05-06 13:19 | 51.46820 | -0.44672 | 88 ft | 2 kts | 267° |
| 2026-05-06 13:19 | 51.46820 | -0.44681 | 86 ft | 0 kts | 267° |
| 2026-05-06 13:20 | 51.46820 | -0.44682 | 86 ft | 0 kts | 267° |